createdAt,value
2022-11-28T00:02:09.489Z,5.80
2022-11-28T00:04:41.682Z,5.90
2022-11-28T00:07:13.871Z,5.90
2022-11-28T00:09:45.770Z,5.90
2022-11-28T00:12:17.605Z,5.90
2022-11-28T00:14:49.439Z,5.90
2022-11-28T00:17:21.232Z,5.80
2022-11-28T00:19:53.036Z,5.80
2022-11-28T00:22:27.785Z,5.80
2022-11-28T00:24:59.524Z,5.80
2022-11-28T00:27:31.283Z,5.80
2022-11-28T00:30:03.610Z,5.80
2022-11-28T00:32:35.431Z,5.80
2022-11-28T00:35:07.439Z,5.70
2022-11-28T00:37:39.198Z,5.80
2022-11-28T00:40:11.224Z,5.80
2022-11-28T00:42:42.940Z,5.80
2022-11-28T00:45:14.882Z,5.90
2022-11-28T00:47:48.269Z,5.90
2022-11-28T00:50:20.018Z,5.90
2022-11-28T00:52:51.710Z,5.90
2022-11-28T00:55:23.582Z,5.90
2022-11-28T00:57:55.461Z,5.90
2022-11-28T01:00:27.237Z,6.00
2022-11-28T01:02:59.549Z,6.00
2022-11-28T01:05:31.324Z,6.10
2022-11-28T01:08:03.143Z,6.10
2022-11-28T01:10:35.004Z,6.00
2022-11-28T01:13:06.783Z,6.00
2022-11-28T01:15:40.273Z,6.00
2022-11-28T01:18:12.132Z,6.00
2022-11-28T01:20:43.928Z,5.90
2022-11-28T01:23:16.515Z,5.90
2022-11-28T01:25:48.377Z,6.00
2022-11-28T01:28:20.150Z,5.90
2022-11-28T01:30:51.978Z,6.00
2022-11-28T01:33:23.777Z,6.00
2022-11-28T01:35:56.718Z,6.00
2022-11-28T01:38:28.643Z,6.10
2022-11-28T01:41:01.133Z,6.00
2022-11-28T01:43:33.489Z,6.00
2022-11-28T01:46:05.822Z,6.00
2022-11-28T01:48:41.329Z,6.00
2022-11-28T01:51:13.594Z,6.10
2022-11-28T01:53:47.260Z,6.10
2022-11-28T01:56:42.049Z,6.10
2022-11-28T01:59:15.169Z,6.10
2022-11-28T02:01:47.330Z,6.20
2022-11-28T02:04:19.269Z,6.30
2022-11-28T02:06:51.085Z,6.30
2022-11-28T02:09:22.881Z,6.40
2022-11-28T02:12:09.872Z,6.40
2022-11-28T02:14:53.664Z,6.40
2022-11-28T02:17:40.495Z,6.30
2022-11-28T02:20:24.346Z,6.30
2022-11-28T02:23:14.885Z,6.30
2022-11-28T02:25:55.647Z,6.30
2022-11-28T02:28:45.650Z,6.30
2022-11-28T02:31:33.618Z,6.20
2022-11-28T02:34:28.613Z,6.20
2022-11-28T02:37:06.594Z,6.20
2022-11-28T02:39:59.642Z,6.20
2022-11-28T02:42:38.460Z,6.20
2022-11-28T02:45:13.085Z,6.20
2022-11-28T02:47:48.663Z,6.20
2022-11-28T02:50:28.934Z,6.30
2022-11-28T02:53:05.193Z,6.30
2022-11-28T02:55:38.810Z,6.30
2022-11-28T02:58:11.461Z,6.30
2022-11-28T03:00:44.902Z,6.30
2022-11-28T03:03:29.264Z,6.40
2022-11-28T03:06:17.731Z,6.40
2022-11-28T03:08:55.667Z,6.30
2022-11-28T03:11:46.257Z,6.30
2022-11-28T03:14:24.854Z,6.30
2022-11-28T03:16:59.416Z,6.30
2022-11-28T03:19:34.521Z,6.20
2022-11-28T03:22:24.871Z,6.30
2022-11-28T03:25:00.611Z,6.30
2022-11-28T03:27:32.355Z,6.40
2022-11-28T03:30:09.788Z,6.50
2022-11-28T03:32:42.402Z,6.60
2022-11-28T03:35:17.022Z,6.50
2022-11-28T03:37:51.232Z,6.50
2022-11-28T03:40:25.208Z,6.50
2022-11-28T03:43:09.865Z,6.50
2022-11-28T03:45:45.094Z,6.50
2022-11-28T03:48:21.489Z,6.50
2022-11-28T03:51:06.284Z,6.40
2022-11-28T03:53:46.354Z,6.40
2022-11-28T03:56:21.688Z,6.50
2022-11-28T03:58:53.458Z,6.50
2022-11-28T04:01:37.102Z,6.50
2022-11-28T04:04:08.916Z,6.50
2022-11-28T04:07:04.343Z,6.50
2022-11-28T04:09:45.152Z,6.50
2022-11-28T04:12:21.711Z,6.50
2022-11-28T04:14:55.789Z,6.50
2022-11-28T04:17:31.582Z,6.50
2022-11-28T04:20:10.433Z,6.50
2022-11-28T04:22:46.176Z,6.50
2022-11-28T04:25:20.330Z,6.60
2022-11-28T04:27:57.781Z,6.60
2022-11-28T04:30:29.648Z,6.60
2022-11-28T04:33:04.127Z,6.60
2022-11-28T04:35:44.125Z,6.60
2022-11-28T04:38:16.322Z,6.70
2022-11-28T04:40:51.737Z,6.80
2022-11-28T04:43:25.336Z,6.80
2022-11-28T04:45:59.710Z,7.00
2022-11-28T04:48:34.402Z,7.00
2022-11-28T04:51:17.351Z,7.00
2022-11-28T04:54:08.089Z,7.00
2022-11-28T04:56:45.229Z,7.00
2022-11-28T04:59:17.559Z,7.00
2022-11-28T05:01:50.248Z,6.90
2022-11-28T05:04:22.094Z,6.80
2022-11-28T05:07:01.376Z,6.70
2022-11-28T05:09:33.133Z,6.70
2022-11-28T05:12:06.071Z,6.60
2022-11-28T05:14:37.858Z,6.60
2022-11-28T05:17:11.817Z,6.60
2022-11-28T05:19:43.628Z,6.60
2022-11-28T05:22:15.518Z,6.60
2022-11-28T05:24:47.348Z,6.60
2022-11-28T05:27:19.093Z,6.70
2022-11-28T05:29:52.319Z,6.70
2022-11-28T05:32:24.329Z,6.80
2022-11-28T05:34:56.180Z,6.70
2022-11-28T05:37:28.066Z,6.70
2022-11-28T05:39:59.824Z,6.80
2022-11-28T05:42:35.719Z,6.70
2022-11-28T05:45:07.864Z,6.70
2022-11-28T05:47:39.816Z,6.70
2022-11-28T05:50:11.772Z,6.60
2022-11-28T05:52:43.683Z,6.60
2022-11-28T05:55:15.756Z,6.70
2022-11-28T05:57:47.688Z,6.70
2022-11-28T06:00:19.785Z,6.70
2022-11-28T06:02:51.608Z,6.70
2022-11-28T06:05:41.613Z,6.70
2022-11-28T06:08:15.030Z,6.70
2022-11-28T06:10:55.894Z,6.80
2022-11-28T06:13:27.997Z,6.80
2022-11-28T06:15:59.774Z,6.80
2022-11-28T06:18:32.697Z,6.90
2022-11-28T06:21:05.393Z,6.90
2022-11-28T06:23:37.621Z,7.10
2022-11-28T06:26:10.953Z,7.10
2022-11-28T06:28:42.820Z,7.10
2022-11-28T06:31:16.102Z,7.00
2022-11-28T06:33:47.922Z,7.00
2022-11-28T06:36:20.318Z,7.00
2022-11-28T06:38:52.270Z,7.00
2022-11-28T06:41:24.096Z,7.00
2022-11-28T06:43:56.703Z,7.00
2022-11-28T06:46:28.495Z,6.90
2022-11-28T06:49:00.406Z,6.90
2022-11-28T06:51:32.166Z,6.90
2022-11-28T06:54:04.074Z,6.80
2022-11-28T06:56:35.939Z,6.80
2022-11-28T06:59:07.856Z,6.80
2022-11-28T07:01:39.771Z,6.80
2022-11-28T07:04:11.742Z,6.80
2022-11-28T07:06:44.968Z,6.80
2022-11-28T07:09:16.873Z,6.80
2022-11-28T07:11:48.690Z,6.80
2022-11-28T07:14:20.543Z,6.80
2022-11-28T07:16:52.619Z,6.80
2022-11-28T07:19:24.438Z,6.90
2022-11-28T07:21:56.258Z,6.90
2022-11-28T07:24:28.137Z,6.90
2022-11-28T07:26:59.955Z,7.00
2022-11-28T07:29:36.481Z,7.10
2022-11-28T07:32:08.467Z,7.20
2022-11-28T07:34:44.619Z,7.10
2022-11-28T07:37:19.672Z,7.10
2022-11-28T07:39:51.558Z,7.00
2022-11-28T07:42:23.334Z,7.00
2022-11-28T07:45:08.342Z,6.90
2022-11-28T07:47:40.216Z,6.90
2022-11-28T07:50:12.099Z,7.00
2022-11-28T07:52:43.964Z,7.10
2022-11-28T07:55:16.034Z,7.10
2022-11-28T07:57:47.917Z,7.10
2022-11-28T08:00:20.143Z,7.20
2022-11-28T08:02:51.875Z,7.30
2022-11-28T08:05:23.883Z,7.40
2022-11-28T08:07:55.961Z,7.50
2022-11-28T08:10:27.800Z,7.30
2022-11-28T08:12:59.628Z,7.00
2022-11-28T08:15:32.293Z,7.10
2022-11-28T08:18:04.404Z,7.00
2022-11-28T08:20:36.285Z,7.10
2022-11-28T08:23:08.033Z,7.10
2022-11-28T08:25:39.864Z,7.20
2022-11-28T08:28:11.761Z,7.30
2022-11-28T08:30:43.674Z,7.30
2022-11-28T08:33:15.470Z,7.40
2022-11-28T08:35:47.371Z,7.70
2022-11-28T08:38:19.361Z,7.80
2022-11-28T08:40:51.160Z,7.80
2022-11-28T08:43:22.981Z,7.80
2022-11-28T08:45:54.861Z,7.80
2022-11-28T08:48:26.694Z,7.80
2022-11-28T08:50:58.540Z,7.80
2022-11-28T08:53:31.012Z,7.80
2022-11-28T08:56:03.676Z,7.80
2022-11-28T08:58:35.619Z,7.80
2022-11-28T09:01:18.113Z,7.90
2022-11-28T09:03:50.838Z,8.00
2022-11-28T09:06:23.513Z,8.10
2022-11-28T09:08:55.393Z,8.30
2022-11-28T09:11:27.266Z,8.30
2022-11-28T09:13:59.889Z,8.30
2022-11-28T09:16:31.778Z,8.40
2022-11-28T09:19:03.987Z,8.40
2022-11-28T09:21:35.917Z,8.30
2022-11-28T09:24:08.212Z,8.30
2022-11-28T09:26:40.140Z,8.30
2022-11-28T09:29:11.975Z,8.30
2022-11-28T09:31:47.317Z,8.30
2022-11-28T09:34:19.587Z,8.40
2022-11-28T09:36:51.497Z,8.40
2022-11-28T09:39:23.354Z,8.40
2022-11-28T09:42:13.628Z,8.50
2022-11-28T09:44:48.444Z,8.50
2022-11-28T09:47:23.002Z,8.40
2022-11-28T09:50:14.324Z,8.30
2022-11-28T09:53:09.484Z,8.20
2022-11-28T09:55:47.419Z,8.30
2022-11-28T09:58:19.204Z,8.30
2022-11-28T10:00:57.967Z,8.50
2022-11-28T10:03:35.698Z,8.40
2022-11-28T10:06:10.353Z,8.60
2022-11-28T10:08:50.896Z,8.60
2022-11-28T10:11:41.752Z,8.60
2022-11-28T10:14:27.892Z,8.70
2022-11-28T10:17:18.289Z,8.70
2022-11-28T10:19:56.272Z,8.70
2022-11-28T10:22:48.387Z,8.50
2022-11-28T10:25:26.249Z,8.40
2022-11-28T10:27:58.270Z,8.50
2022-11-28T10:30:33.900Z,8.60
2022-11-28T10:33:14.476Z,8.80
2022-11-28T10:35:53.246Z,8.90
2022-11-28T10:38:27.473Z,9.00
2022-11-28T10:41:05.106Z,9.10
2022-11-28T10:43:44.161Z,9.10
2022-11-28T10:46:21.725Z,9.10
2022-11-28T10:48:58.189Z,9.10
2022-11-28T10:51:45.308Z,9.20
2022-11-28T10:54:26.028Z,9.20
2022-11-28T10:56:58.069Z,9.20
2022-11-28T10:59:33.245Z,9.20
2022-11-28T11:02:24.239Z,9.10
2022-11-28T11:04:56.120Z,9.20
2022-11-28T11:07:32.315Z,9.20
2022-11-28T11:10:19.390Z,9.20
2022-11-28T11:12:52.726Z,9.20
2022-11-28T11:15:32.578Z,9.20
2022-11-28T11:18:05.483Z,9.20
2022-11-28T11:20:40.318Z,9.20
2022-11-28T11:23:14.049Z,9.10
2022-11-28T11:25:51.012Z,9.00
2022-11-28T11:28:32.150Z,9.00
2022-11-28T11:31:05.880Z,9.00
2022-11-28T11:33:37.894Z,9.00
2022-11-28T11:36:29.976Z,8.90
2022-11-28T11:39:10.982Z,8.90
2022-11-28T11:41:44.332Z,8.70
2022-11-28T11:44:16.085Z,8.80
2022-11-28T11:46:51.515Z,8.80
2022-11-28T11:49:35.726Z,8.80
2022-11-28T11:52:07.609Z,8.80
2022-11-28T11:54:40.275Z,8.90
2022-11-28T11:57:31.855Z,8.80
2022-11-28T12:00:14.684Z,8.90
2022-11-28T12:02:53.100Z,9.00
2022-11-28T12:06:12.273Z,9.20
2022-11-28T12:08:40.834Z,9.30
2022-11-28T12:11:12.556Z,9.50
2022-11-28T12:13:44.503Z,9.40
2022-11-28T12:16:31.566Z,9.40
2022-11-28T12:19:03.406Z,9.30
2022-11-28T12:21:44.722Z,9.30
2022-11-28T12:24:20.947Z,9.30
2022-11-28T12:27:13.066Z,9.30
2022-11-28T12:29:45.115Z,9.40
2022-11-28T12:32:23.385Z,9.40
2022-11-28T12:35:06.313Z,9.30
2022-11-28T12:38:12.296Z,9.20
2022-11-28T12:40:50.039Z,9.00
2022-11-28T12:43:30.663Z,9.00
2022-11-28T12:46:09.266Z,9.00
2022-11-28T12:48:59.655Z,9.00
2022-11-28T12:51:50.320Z,9.00
2022-11-28T12:54:22.122Z,9.10
2022-11-28T12:57:14.214Z,9.10
2022-11-28T12:59:49.210Z,9.10
2022-11-28T13:02:24.102Z,9.20
2022-11-28T13:05:18.100Z,9.10
2022-11-28T13:08:08.368Z,9.10
2022-11-28T13:10:51.538Z,9.10
2022-11-28T13:13:27.964Z,9.00
2022-11-28T13:16:02.977Z,9.10
2022-11-28T13:18:44.009Z,9.00
2022-11-28T13:24:14.684Z,9.10
2022-11-28T13:27:05.546Z,9.00
2022-11-28T13:29:45.225Z,9.00
2022-11-28T13:32:26.682Z,9.00
2022-11-28T13:34:59.846Z,8.90
2022-11-28T13:40:52.853Z,8.80
2022-11-28T13:43:41.777Z,8.90
2022-11-28T13:46:15.331Z,9.00
2022-11-28T13:49:25.126Z,8.90
2022-11-28T13:51:44.664Z,8.90
2022-11-28T13:54:22.277Z,8.90
2022-11-28T13:57:19.084Z,8.80
2022-11-28T13:59:59.356Z,8.80
2022-11-28T14:02:44.537Z,8.80
2022-11-28T14:05:38.294Z,8.80
2022-11-28T14:08:32.733Z,8.80
2022-11-28T14:11:32.980Z,8.80
2022-11-28T14:14:36.093Z,8.70
2022-11-28T14:17:23.174Z,8.50
2022-11-28T14:20:13.660Z,8.60
2022-11-28T14:23:05.341Z,8.70
2022-11-28T14:25:47.173Z,8.70
2022-11-28T14:28:25.532Z,8.60
2022-11-28T14:31:50.924Z,8.50
2022-11-28T14:34:48.012Z,8.50
2022-11-28T14:37:20.327Z,8.60
2022-11-28T14:39:54.609Z,8.60
2022-11-28T14:45:40.591Z,8.60
2022-11-28T14:48:19.540Z,8.70
2022-11-28T14:51:00.570Z,8.60
2022-11-28T14:53:34.712Z,8.50
2022-11-28T14:56:11.568Z,8.50
2022-11-28T14:58:52.503Z,8.40
2022-11-28T15:01:47.979Z,8.30
2022-11-28T15:04:34.977Z,8.40
2022-11-28T15:07:18.704Z,8.40
2022-11-28T15:10:10.406Z,8.40
2022-11-28T15:13:12.189Z,8.40
2022-11-28T15:15:49.360Z,8.30
2022-11-28T15:18:23.901Z,8.40
2022-11-28T15:21:00.111Z,8.50
2022-11-28T15:23:38.310Z,8.50
2022-11-28T15:26:29.241Z,8.40
2022-11-28T15:29:17.035Z,8.30
2022-11-28T15:31:51.686Z,8.20
2022-11-28T15:34:28.607Z,8.10
2022-11-28T15:37:04.393Z,8.10
2022-11-28T15:39:39.957Z,8.10
2022-11-28T15:42:37.789Z,8.20
2022-11-28T15:45:17.855Z,8.20
2022-11-28T15:47:51.820Z,8.10
2022-11-28T15:50:27.056Z,8.10
2022-11-28T15:53:03.514Z,8.10
2022-11-28T15:55:35.683Z,8.10
2022-11-28T15:58:20.382Z,8.10
2022-11-28T16:01:15.551Z,8.10
2022-11-28T16:03:56.739Z,8.30
2022-11-28T16:06:35.837Z,8.20
2022-11-28T16:09:29.934Z,8.10
2022-11-28T16:12:04.026Z,7.90
2022-11-28T16:14:43.524Z,7.80
2022-11-28T16:17:20.930Z,7.70
2022-11-28T16:19:54.778Z,7.60
2022-11-28T16:22:38.046Z,7.60
2022-11-28T16:25:20.574Z,7.60
2022-11-28T16:27:57.539Z,7.60
2022-11-28T16:30:37.643Z,7.60
2022-11-28T16:33:39.193Z,7.50
2022-11-28T16:36:16.152Z,7.50
2022-11-28T16:38:50.204Z,7.60
2022-11-28T16:41:26.384Z,7.60
2022-11-28T16:44:10.241Z,7.60
2022-11-28T16:46:52.207Z,7.60
2022-11-28T16:49:58.960Z,7.60
2022-11-28T16:52:30.792Z,7.60
2022-11-28T16:55:02.646Z,7.70
2022-11-28T16:58:10.816Z,7.80
2022-11-28T17:00:47.761Z,7.70
2022-11-28T17:03:47.260Z,7.60
2022-11-28T17:06:34.370Z,7.60
2022-11-28T17:09:10.755Z,7.40
2022-11-28T17:11:59.307Z,7.40
2022-11-28T17:14:32.120Z,7.50
2022-11-28T17:17:14.054Z,7.50
2022-11-28T17:19:46.488Z,7.50
2022-11-28T17:22:25.456Z,7.50
2022-11-28T17:25:00.766Z,7.50
2022-11-28T17:27:33.053Z,7.40
2022-11-28T17:30:05.910Z,7.40
2022-11-28T17:32:38.234Z,7.40
2022-11-28T17:35:18.386Z,7.50
2022-11-28T17:37:50.978Z,7.50
2022-11-28T17:40:36.582Z,7.50
2022-11-28T17:43:19.580Z,7.40
2022-11-28T17:45:51.523Z,7.40
2022-11-28T17:48:24.199Z,7.40
2022-11-28T17:50:56.084Z,7.20
2022-11-28T17:53:28.052Z,7.20
2022-11-28T17:56:00.723Z,7.10
2022-11-28T17:58:33.013Z,7.10
2022-11-28T18:01:11.207Z,7.10
2022-11-28T18:03:43.109Z,7.00
2022-11-28T18:06:17.448Z,7.00
2022-11-28T18:08:50.638Z,6.90
2022-11-28T18:11:23.312Z,6.90
2022-11-28T18:13:55.646Z,7.00
2022-11-28T18:16:29.193Z,7.00
2022-11-28T18:19:01.197Z,7.00
2022-11-28T18:21:33.575Z,6.90
2022-11-28T18:24:06.425Z,6.80
2022-11-28T18:26:38.899Z,6.80
2022-11-28T18:29:10.817Z,6.80
2022-11-28T18:31:42.959Z,6.80
2022-11-28T18:34:16.748Z,6.80
2022-11-28T18:36:48.757Z,6.80
2022-11-28T18:39:20.636Z,6.80
2022-11-28T18:41:52.571Z,6.80
2022-11-28T18:44:24.456Z,6.80
2022-11-28T18:46:56.448Z,6.90
2022-11-28T18:49:28.475Z,6.80
2022-11-28T18:52:01.015Z,6.80
2022-11-28T18:54:33.695Z,6.80
2022-11-28T18:57:08.908Z,6.80
2022-11-28T18:59:40.938Z,6.80
2022-11-28T19:02:13.907Z,6.80
2022-11-28T19:04:45.796Z,6.80
2022-11-28T19:07:18.379Z,6.80
2022-11-28T19:09:50.614Z,6.70
2022-11-28T19:12:23.131Z,6.70
2022-11-28T19:15:01.736Z,6.70
2022-11-28T19:17:34.580Z,6.70
2022-11-28T19:20:07.116Z,6.70
2022-11-28T19:22:39.036Z,6.70
2022-11-28T19:25:11.052Z,6.60
2022-11-28T19:27:43.287Z,6.60
2022-11-28T19:30:15.538Z,6.70
2022-11-28T19:33:06.506Z,6.70
2022-11-28T19:35:38.806Z,6.80
2022-11-28T19:38:10.868Z,6.80
2022-11-28T19:40:42.961Z,6.80
2022-11-28T19:43:15.283Z,6.90
2022-11-28T19:45:57.650Z,6.90
2022-11-28T19:48:31.420Z,6.80
2022-11-28T19:51:04.986Z,6.80
2022-11-28T19:53:38.734Z,6.70
2022-11-28T19:56:14.578Z,6.60
2022-11-28T19:58:47.121Z,6.60
2022-11-28T20:01:24.657Z,6.60
2022-11-28T20:03:59.585Z,6.60
2022-11-28T20:06:33.211Z,6.50
2022-11-28T20:09:07.937Z,6.50
2022-11-28T20:11:44.036Z,6.40
2022-11-28T20:14:18.501Z,6.40
2022-11-28T20:16:51.601Z,6.40
2022-11-28T20:19:23.802Z,6.40
2022-11-28T20:21:58.563Z,6.40
2022-11-28T20:24:30.993Z,6.40
2022-11-28T20:27:03.676Z,6.40
2022-11-28T20:29:35.927Z,6.40
2022-11-28T20:32:08.414Z,6.50
2022-11-28T20:34:41.218Z,6.50
2022-11-28T20:37:13.779Z,6.50
2022-11-28T20:39:46.206Z,6.50
2022-11-28T20:42:18.443Z,6.50
2022-11-28T20:44:51.087Z,6.50
2022-11-28T20:47:23.213Z,6.50
2022-11-28T20:49:55.082Z,6.50
2022-11-28T20:52:26.943Z,6.50
2022-11-28T20:54:58.858Z,6.50
2022-11-28T20:57:30.714Z,6.50
2022-11-28T21:00:02.573Z,6.60
2022-11-28T21:02:34.529Z,6.50
2022-11-28T21:05:06.829Z,6.50
2022-11-28T21:07:38.854Z,6.50
2022-11-28T21:10:10.852Z,6.50
2022-11-28T21:12:42.705Z,6.50
2022-11-28T21:15:14.604Z,6.60
2022-11-28T21:17:46.588Z,6.60
2022-11-28T21:20:18.445Z,6.70
2022-11-28T21:22:53.288Z,6.70
2022-11-28T21:25:25.144Z,6.70
2022-11-28T21:27:57.276Z,6.60
2022-11-28T21:30:29.169Z,6.60
2022-11-28T21:33:01.033Z,6.50
2022-11-28T21:35:34.850Z,6.60
2022-11-28T21:38:07.438Z,6.50
2022-11-28T21:40:39.289Z,6.50
2022-11-28T21:43:11.268Z,6.50
2022-11-28T21:45:43.249Z,6.40
2022-11-28T21:48:16.709Z,6.40
2022-11-28T21:50:51.566Z,6.40
2022-11-28T21:53:23.445Z,6.40
2022-11-28T21:55:55.987Z,6.40
2022-11-28T21:58:28.977Z,6.50
2022-11-28T22:01:04.374Z,6.50
2022-11-28T22:03:38.154Z,6.50
2022-11-28T22:06:20.266Z,6.50
2022-11-28T22:08:54.005Z,6.50
2022-11-28T22:11:26.970Z,6.50
2022-11-28T22:13:59.803Z,6.50
2022-11-28T22:16:31.808Z,6.50
2022-11-28T22:19:04.942Z,6.50
2022-11-28T22:21:54.462Z,6.50
2022-11-28T22:24:27.966Z,6.50
2022-11-28T22:27:00.130Z,6.60
2022-11-28T22:29:33.123Z,6.60
2022-11-28T22:32:05.294Z,6.60
2022-11-28T22:34:40.046Z,6.60
2022-11-28T22:37:12.658Z,6.60
2022-11-28T22:39:44.690Z,6.60
2022-11-28T22:42:16.558Z,6.60
2022-11-28T22:44:48.480Z,6.60
2022-11-28T22:47:20.622Z,6.60
2022-11-28T22:49:52.770Z,6.60
2022-11-28T22:52:24.647Z,6.60
2022-11-28T22:54:56.463Z,6.70
2022-11-28T22:57:28.635Z,6.70
2022-11-28T23:00:00.544Z,6.80
2022-11-28T23:02:32.640Z,6.80
2022-11-28T23:05:05.249Z,6.80
2022-11-28T23:07:37.169Z,6.80
2022-11-28T23:10:09.624Z,6.70
2022-11-28T23:12:42.553Z,6.80
2022-11-28T23:15:14.724Z,6.80
2022-11-28T23:17:46.664Z,6.80
2022-11-28T23:20:18.680Z,6.70
2022-11-28T23:22:50.601Z,6.70
2022-11-28T23:25:22.525Z,6.70
2022-11-28T23:27:55.587Z,6.60
2022-11-28T23:30:27.722Z,6.50
2022-11-28T23:32:59.624Z,6.50
2022-11-28T23:35:31.424Z,6.40
2022-11-28T23:38:03.293Z,6.40
2022-11-28T23:40:35.158Z,6.40
2022-11-28T23:43:06.996Z,6.40
2022-11-28T23:45:38.890Z,6.40
2022-11-28T23:48:10.794Z,6.40
2022-11-28T23:50:42.796Z,6.50
2022-11-28T23:53:14.838Z,6.50
2022-11-28T23:55:46.681Z,6.60
2022-11-28T23:58:18.660Z,6.60
